Time;durP1;ratioP1;P1;durP2;ratioP2;P2;SDS_P1;SDS_P2;PMS_P1;PMS_P2;Temp;Humidity;BMP_temperature;BMP_pressure;BME280_temperature;BME280_humidity;BME280_pressure;Samples;Min_cycle;Max_cycle;Signal;HPM_P1;HPM_P2
2021/12/19 00:01:12;;;;;;;34.00;16.98;;;5.10;99.90;;;;;;4996405;28;20029;-82
2021/12/19 00:04:02;;;;;;;42.90;19.55;;;5.20;99.90;;;;;;4996792;28;20072;-77
2021/12/19 00:09:12;;;;;;;34.20;18.65;;;5.20;99.90;;;;;;4996213;28;20041;-80
2021/12/19 00:11:39;;;;;;;36.00;19.05;;;5.30;99.90;;;;;;4996482;28;20383;-81
2021/12/19 00:14:05;;;;;;;36.10;19.15;;;5.30;99.90;;;;;;4995868;28;20084;-81
2021/12/19 00:16:31;;;;;;;32.13;19.05;;;5.40;99.90;;;;;;4996167;28;20040;-81
2021/12/19 00:18:57;;;;;;;41.92;19.85;;;5.40;99.90;;;;;;4995877;28;20037;-81
2021/12/19 00:21:25;;;;;;;44.25;21.88;;;5.40;99.90;;;;;;4995274;28;20387;-82
2021/12/19 00:23:53;;;;;;;40.72;22.58;;;5.50;99.90;;;;;;4995743;28;20389;-82
2021/12/19 00:26:19;;;;;;;41.75;22.67;;;5.50;99.90;;;;;;4994438;28;20018;-81
2021/12/19 00:28:47;;;;;;;39.03;21.92;;;5.50;99.90;;;;;;4995312;28;20023;-82
2021/12/19 00:31:13;;;;;;;39.33;21.35;;;5.50;99.90;;;;;;4994614;28;20038;-80
2021/12/19 00:33:41;;;;;;;46.78;22.65;;;5.60;99.90;;;;;;4996199;28;20097;-82
2021/12/19 00:36:07;;;;;;;41.00;23.42;;;5.50;99.90;;;;;;4995844;28;20483;-81
2021/12/19 00:38:34;;;;;;;48.40;23.80;;;5.60;99.90;;;;;;4995681;28;20026;-78
2021/12/19 00:41:03;;;;;;;45.20;24.35;;;5.50;99.90;;;;;;4990376;28;20077;-77
2021/12/19 00:43:37;;;;;;;43.42;23.48;;;5.40;99.90;;;;;;4995887;28;20026;-79
2021/12/19 00:46:07;;;;;;;40.53;22.30;;;5.40;99.90;;;;;;4995781;28;20118;-80
2021/12/19 00:48:43;;;;;;;46.85;24.70;;;5.50;99.90;;;;;;4995897;28;20018;-79
2021/12/19 00:51:12;;;;;;;50.33;26.55;;;5.50;99.90;;;;;;4995354;28;20022;-77
2021/12/19 00:53:38;;;;;;;54.17;27.77;;;5.50;99.90;;;;;;4995696;28;20030;-80
2021/12/19 00:56:05;;;;;;;52.70;26.50;;;5.60;99.90;;;;;;4995675;28;20067;-81
2021/12/19 00:58:30;;;;;;;47.35;24.90;;;5.60;99.90;;;;;;4995369;28;20537;-81
2021/12/19 01:00:56;;;;;;;47.45;25.98;;;5.60;99.90;;;;;;4994973;28;20030;-79
2021/12/19 01:03:22;;;;;;;48.25;25.45;;;5.70;99.90;;;;;;4995544;28;20357;-80
2021/12/19 01:05:49;;;;;;;53.60;27.88;;;5.60;99.90;;;;;;4995788;28;20057;-81
2021/12/19 01:08:15;;;;;;;45.35;25.35;;;5.50;99.90;;;;;;4994330;28;20022;-80
2021/12/19 01:10:43;;;;;;;56.25;26.88;;;5.50;99.90;;;;;;4995913;28;20486;-81
2021/12/19 01:13:10;;;;;;;50.20;25.63;;;5.50;99.90;;;;;;4995495;28;20101;-81
2021/12/19 01:15:36;;;;;;;48.75;24.70;;;5.40;99.90;;;;;;4993820;28;20031;-76
2021/12/19 01:18:03;;;;;;;48.25;24.50;;;5.20;99.90;;;;;;4993858;28;20081;-80
2021/12/19 01:20:31;;;;;;;40.42;23.35;;;5.20;99.90;;;;;;4995008;28;20081;-79
2021/12/19 01:22:58;;;;;;;47.70;25.50;;;5.20;99.90;;;;;;4994958;28;20065;-80
2021/12/19 01:25:23;;;;;;;48.35;23.33;;;5.20;99.90;;;;;;4995417;28;20038;-82
2021/12/19 01:27:49;;;;;;;49.67;23.85;;;5.30;99.90;;;;;;4995153;28;20070;-81
2021/12/19 01:30:16;;;;;;;40.38;22.98;;;5.30;99.90;;;;;;4995353;28;20088;-77
2021/12/19 01:32:43;;;;;;;43.58;22.60;;;5.30;99.90;;;;;;4994777;28;20025;-81
2021/12/19 01:35:10;;;;;;;40.63;22.67;;;5.30;99.90;;;;;;4994621;28;20034;-80
2021/12/19 01:37:36;;;;;;;43.42;22.75;;;5.30;99.90;;;;;;4993502;28;20081;-82
2021/12/19 01:40:04;;;;;;;39.20;23.17;;;5.40;99.90;;;;;;4994439;28;20030;-79
2021/12/19 01:42:32;;;;;;;41.53;24.13;;;5.40;99.90;;;;;;4994565;28;20034;-81
2021/12/19 01:44:58;;;;;;;44.83;24.30;;;5.30;99.90;;;;;;4995022;28;20065;-80
2021/12/19 01:47:23;;;;;;;42.88;23.75;;;5.30;99.90;;;;;;4994774;28;20062;-81
2021/12/19 01:49:50;;;;;;;41.97;23.77;;;5.20;99.90;;;;;;4994608;28;20097;-81
2021/12/19 01:52:15;;;;;;;43.92;24.67;;;5.10;99.90;;;;;;4994680;28;20080;-81
2021/12/19 01:54:41;;;;;;;50.20;25.15;;;5.00;99.90;;;;;;4993420;28;20058;-81
2021/12/19 01:57:07;;;;;;;52.72;28.13;;;5.10;99.90;;;;;;4994701;28;20042;-80
2021/12/19 01:59:32;;;;;;;44.13;26.30;;;5.10;99.90;;;;;;4993369;28;20043;-80
2021/12/19 02:01:58;;;;;;;52.47;26.10;;;5.10;99.90;;;;;;4993633;28;20030;-80
2021/12/19 02:04:30;;;;;;;46.53;26.08;;;5.10;99.90;;;;;;4994476;28;20375;-81
2021/12/19 02:06:57;;;;;;;60.88;27.38;;;5.10;99.90;;;;;;4994367;28;20015;-75
2021/12/19 02:09:23;;;;;;;50.45;26.25;;;5.10;99.90;;;;;;4994195;28;20037;-81
2021/12/19 02:11:49;;;;;;;52.97;27.20;;;5.00;99.90;;;;;;4993905;28;20486;-81
2021/12/19 02:14:15;;;;;;;52.42;26.02;;;5.00;99.90;;;;;;4994297;28;20121;-81
2021/12/19 02:16:41;;;;;;;53.50;27.65;;;5.00;99.90;;;;;;4994475;28;20049;-80
2021/12/19 02:19:08;;;;;;;55.00;27.63;;;5.10;99.90;;;;;;4994458;28;20387;-81
2021/12/19 02:21:34;;;;;;;53.47;28.48;;;5.10;99.90;;;;;;4994322;28;20464;-81
2021/12/19 02:24:04;;;;;;;58.33;30.80;;;5.10;99.90;;;;;;4993404;28;20081;-80
2021/12/19 02:26:30;;;;;;;57.97;29.40;;;5.20;99.90;;;;;;4994110;28;20103;-80
2021/12/19 02:28:56;;;;;;;61.83;29.83;;;5.20;99.90;;;;;;4994319;28;20029;-79
2021/12/19 02:31:22;;;;;;;55.88;31.23;;;5.20;99.90;;;;;;4994201;28;20305;-81
2021/12/19 02:34:02;;;;;;;52.17;28.45;;;5.20;99.90;;;;;;4993596;28;20100;-79
2021/12/19 02:36:46;;;;;;;51.55;28.63;;;5.20;99.90;;;;;;4993716;28;20045;-81
2021/12/19 02:50:16;;;;;;;54.08;28.60;;;4.70;99.90;;;;;;4994005;28;20038;-81
2021/12/19 02:52:42;;;;;;;51.42;27.90;;;4.70;99.90;;;;;;4993860;28;20027;-81
2021/12/19 02:55:08;;;;;;;50.55;26.50;;;4.70;99.90;;;;;;4993642;28;20027;-80
2021/12/19 02:57:34;;;;;;;57.67;27.08;;;4.80;99.90;;;;;;4993626;28;20037;-80
2021/12/19 03:00:00;;;;;;;53.00;27.90;;;4.90;99.90;;;;;;4993809;28;20037;-81
2021/12/19 03:02:26;;;;;;;49.30;27.48;;;5.00;99.90;;;;;;4993699;28;20034;-81
2021/12/19 03:04:57;;;;;;;51.28;26.75;;;5.00;99.90;;;;;;4993189;28;20076;-80
2021/12/19 03:07:24;;;;;;;45.60;26.75;;;5.00;99.90;;;;;;4993357;28;20535;-82
2021/12/19 03:12:33;;;;;;;50.35;27.95;;;5.00;99.90;;;;;;4993593;28;20110;-81
2021/12/19 03:17:59;;;;;;;62.83;29.15;;;5.10;99.90;;;;;;4993394;28;20041;-81
2021/12/19 03:20:26;;;;;;;58.47;30.40;;;5.10;99.90;;;;;;4993060;28;20025;-81
2021/12/19 03:22:52;;;;;;;55.47;27.83;;;5.10;99.90;;;;;;4991592;28;20049;-81
2021/12/19 03:25:18;;;;;;;56.83;30.50;;;5.20;99.90;;;;;;4992887;28;20542;-80
2021/12/19 03:27:44;;;;;;;55.00;28.65;;;5.20;99.90;;;;;;4992806;28;20022;-82
2021/12/19 03:30:11;;;;;;;69.32;31.00;;;5.30;99.90;;;;;;4992770;28;20495;-81
2021/12/19 03:32:37;;;;;;;46.28;26.50;;;5.30;99.90;;;;;;4992891;28;20077;-80
2021/12/19 03:35:05;;;;;;;54.28;30.05;;;5.40;99.90;;;;;;4992901;28;20487;-82
2021/12/19 03:37:31;;;;;;;49.92;28.80;;;5.30;99.90;;;;;;4993237;28;20026;-81
2021/12/19 03:40:08;;;;;;;55.47;28.83;;;5.30;99.90;;;;;;4993313;28;20029;-80
2021/12/19 03:42:39;;;;;;;53.17;28.02;;;5.30;99.90;;;;;;4993012;28;20034;-81
2021/12/19 03:45:08;;;;;;;64.00;32.45;;;5.30;99.90;;;;;;4992990;28;20024;-81
2021/12/19 03:47:34;;;;;;;63.38;33.83;;;5.40;99.90;;;;;;4992958;28;20062;-81
2021/12/19 03:50:02;;;;;;;67.93;35.22;;;5.40;99.90;;;;;;4993147;28;20023;-82
2021/12/19 03:52:27;;;;;;;59.88;34.20;;;5.50;99.90;;;;;;4992804;28;20027;-81
2021/12/19 03:54:53;;;;;;;57.60;32.53;;;5.50;99.90;;;;;;4992581;28;20026;-81
2021/12/19 03:57:19;;;;;;;60.17;35.50;;;5.50;99.90;;;;;;4991660;28;20060;-81
2021/12/19 03:59:47;;;;;;;59.05;34.13;;;5.60;99.90;;;;;;4992445;28;20030;-81
2021/12/19 04:02:13;;;;;;;59.03;31.40;;;5.60;99.90;;;;;;4993118;28;20035;-81
2021/12/19 04:04:40;;;;;;;57.42;30.50;;;5.50;99.90;;;;;;4992665;28;20490;-80
2021/12/19 04:07:06;;;;;;;50.75;28.00;;;5.30;99.90;;;;;;4993025;28;20068;-79
2021/12/19 04:09:31;;;;;;;55.75;31.30;;;5.20;99.90;;;;;;4992643;28;20442;-81
2021/12/19 04:11:57;;;;;;;62.40;29.50;;;5.10;99.90;;;;;;4992856;28;20058;-81
2021/12/19 04:14:23;;;;;;;54.70;29.80;;;5.00;99.90;;;;;;4992804;28;20073;-80
2021/12/19 04:16:49;;;;;;;58.75;29.10;;;5.00;99.90;;;;;;4992845;28;20026;-78
2021/12/19 04:19:15;;;;;;;57.90;29.80;;;5.00;99.90;;;;;;4992929;28;20030;-80
2021/12/19 04:21:40;;;;;;;62.42;30.75;;;5.00;99.90;;;;;;4992693;28;20039;-80
2021/12/19 04:24:06;;;;;;;60.95;29.80;;;5.00;99.90;;;;;;4991510;28;20055;-81
2021/12/19 04:26:33;;;;;;;56.10;29.83;;;5.00;99.90;;;;;;4995732;28;20034;-81
2021/12/19 04:28:58;;;;;;;57.58;29.38;;;5.00;99.90;;;;;;4996466;28;20022;-80
2021/12/19 04:31:24;;;;;;;56.00;29.67;;;5.00;99.90;;;;;;4996213;28;20521;-81
2021/12/19 04:33:50;;;;;;;51.38;29.02;;;5.00;99.90;;;;;;4996132;28;20467;-81
2021/12/19 04:36:23;;;;;;;55.38;29.85;;;5.00;99.90;;;;;;4996302;28;20038;-81
2021/12/19 05:00:10;;;;;;;75.65;33.75;;;4.60;99.90;;;;;;4976515;28;20030;-82
2021/12/19 05:15:48;;;;;;;73.57;36.92;;;4.50;99.90;;;;;;4995615;28;20057;-81
2021/12/19 05:18:13;;;;;;;72.72;36.20;;;4.40;99.90;;;;;;4994167;28;20029;-81
2021/12/19 05:20:50;;;;;;;67.40;35.40;;;4.40;99.90;;;;;;4995548;28;20102;-81
2021/12/19 05:23:33;;;;;;;71.57;37.72;;;4.30;99.90;;;;;;4995228;28;20483;-79
2021/12/19 05:26:00;;;;;;;76.63;37.25;;;4.30;99.90;;;;;;4994306;28;20066;-81
2021/12/19 05:28:25;;;;;;;85.18;39.55;;;4.20;99.90;;;;;;4994918;28;20471;-81
2021/12/19 05:30:51;;;;;;;73.55;38.47;;;4.20;99.90;;;;;;4994697;28;20028;-81
2021/12/19 05:33:17;;;;;;;75.93;39.30;;;4.20;99.90;;;;;;4995359;28;20529;-81
2021/12/19 05:46:25;;;;;;;86.55;45.03;;;4.30;99.90;;;;;;4995025;28;20441;-81
2021/12/19 05:48:51;;;;;;;83.78;42.80;;;4.40;99.90;;;;;;4995055;28;20105;-81
2021/12/19 05:51:17;;;;;;;87.63;42.70;;;4.40;99.90;;;;;;4993816;28;20101;-81
2021/12/19 05:53:42;;;;;;;86.07;45.03;;;4.40;99.90;;;;;;4994388;28;20403;-81
2021/12/19 05:56:08;;;;;;;87.63;44.28;;;4.50;99.90;;;;;;4994192;28;20100;-81
2021/12/19 05:58:34;;;;;;;82.13;42.15;;;4.50;99.90;;;;;;4994878;28;20038;-81
2021/12/19 06:01:00;;;;;;;80.70;41.78;;;4.50;99.90;;;;;;4994957;28;20077;-81
2021/12/19 06:03:25;;;;;;;83.20;40.60;;;4.50;99.90;;;;;;4994582;28;20046;-79
2021/12/19 06:05:52;;;;;;;79.15;40.13;;;4.50;99.90;;;;;;4994594;28;20085;-82
2021/12/19 06:08:17;;;;;;;76.40;40.03;;;4.50;99.90;;;;;;4993506;28;20026;-81
2021/12/19 06:10:43;;;;;;;70.15;37.22;;;4.50;99.90;;;;;;4994536;28;20038;-79
2021/12/19 06:13:09;;;;;;;73.70;34.08;;;4.40;99.90;;;;;;4994264;28;20386;-79
2021/12/19 06:15:36;;;;;;;63.65;34.35;;;4.30;99.90;;;;;;4993587;28;20030;-81
2021/12/19 06:18:02;;;;;;;61.55;33.42;;;4.20;99.90;;;;;;4994461;28;20022;-82
2021/12/19 06:20:28;;;;;;;62.42;30.15;;;4.20;99.90;;;;;;4994295;28;20022;-82
2021/12/19 06:22:54;;;;;;;58.13;31.20;;;4.10;99.90;;;;;;4994389;28;20037;-81
2021/12/19 06:25:20;;;;;;;66.25;34.50;;;4.00;99.90;;;;;;4994422;28;20407;-81
2021/12/19 06:27:46;;;;;;;61.72;31.65;;;3.90;99.90;;;;;;4993958;28;20034;-82
2021/12/19 06:30:12;;;;;;;58.78;31.60;;;3.80;99.90;;;;;;4994019;28;20030;-81
2021/12/19 06:32:38;;;;;;;56.55;31.10;;;3.80;99.90;;;;;;4993924;28;20033;-82
2021/12/19 06:35:09;;;;;;;57.85;31.33;;;3.80;99.90;;;;;;4993914;28;20026;-82
2021/12/19 06:37:38;;;;;;;56.85;32.08;;;3.80;99.90;;;;;;4993393;28;20038;-79
2021/12/19 06:40:06;;;;;;;50.33;29.13;;;3.80;99.90;;;;;;4993742;28;20559;-82
2021/12/19 06:42:32;;;;;;;57.60;30.90;;;3.80;99.90;;;;;;4993948;28;20030;-81
2021/12/19 06:44:58;;;;;;;53.25;29.17;;;3.80;99.90;;;;;;4993935;28;20356;-80
2021/12/19 06:47:23;;;;;;;59.33;30.17;;;3.90;99.90;;;;;;4993525;28;20435;-81
2021/12/19 06:49:49;;;;;;;51.03;29.85;;;3.90;99.90;;;;;;4993587;28;20037;-81
2021/12/19 06:52:15;;;;;;;65.45;31.77;;;3.90;99.90;;;;;;4993536;28;20467;-81
2021/12/19 06:54:40;;;;;;;55.13;27.92;;;3.90;99.90;;;;;;4993273;28;20086;-78
2021/12/19 06:57:06;;;;;;;57.75;28.63;;;3.90;99.90;;;;;;4992877;28;20494;-79
2021/12/19 06:59:32;;;;;;;51.40;28.30;;;4.00;99.90;;;;;;4993353;28;20538;-81
2021/12/19 07:01:57;;;;;;;55.47;28.80;;;4.00;99.90;;;;;;4993462;28;20489;-81
2021/12/19 07:04:23;;;;;;;51.55;28.70;;;4.00;99.90;;;;;;4992341;28;20030;-83
2021/12/19 07:06:48;;;;;;;50.95;28.60;;;4.10;99.90;;;;;;4993348;28;20030;-81
2021/12/19 07:09:14;;;;;;;65.30;30.42;;;4.20;99.90;;;;;;4993616;28;20108;-82
2021/12/19 07:11:40;;;;;;;52.47;28.55;;;4.30;99.90;;;;;;4993278;28;20169;-82
2021/12/19 07:14:05;;;;;;;55.03;28.70;;;4.50;99.90;;;;;;4992897;28;20022;-81
2021/12/19 07:16:31;;;;;;;51.55;29.25;;;4.70;99.90;;;;;;4993009;28;20490;-82
2021/12/19 07:18:57;;;;;;;46.15;25.58;;;4.80;99.90;;;;;;4992201;28;20391;-82
2021/12/19 07:21:25;;;;;;;43.80;25.83;;;5.00;99.90;;;;;;4993211;28;20092;-76
2021/12/19 07:23:51;;;;;;;47.88;25.67;;;5.00;99.90;;;;;;4993179;28;20014;-82
2021/12/19 07:26:17;;;;;;;45.25;23.48;;;5.20;99.90;;;;;;4991859;28;20022;-83
2021/12/19 07:28:46;;;;;;;46.63;23.60;;;5.50;99.90;;;;;;4991584;28;20743;-82
2021/12/19 07:31:11;;;;;;;41.10;23.35;;;5.80;99.90;;;;;;4992693;28;20052;-82
2021/12/19 07:33:37;;;;;;;40.50;22.67;;;6.10;99.90;;;;;;4991910;28;20440;-83
2021/12/19 07:36:03;;;;;;;38.15;21.73;;;6.50;99.90;;;;;;4993084;28;20074;-83
2021/12/19 07:38:35;;;;;;;34.70;19.33;;;6.90;99.90;;;;;;4993148;28;20084;-82
2021/12/19 07:41:02;;;;;;;40.58;19.77;;;7.30;99.90;;;;;;4992763;28;20022;-82
2021/12/19 07:43:28;;;;;;;37.72;20.20;;;7.40;99.90;;;;;;4992943;28;20027;-82
2021/12/19 07:45:55;;;;;;;33.10;19.60;;;7.30;99.90;;;;;;4991952;28;20467;-82
2021/12/19 07:48:20;;;;;;;35.45;21.05;;;7.30;99.90;;;;;;4993224;28;20018;-82
2021/12/19 07:50:46;;;;;;;34.53;19.83;;;7.50;99.90;;;;;;4993002;28;20049;-82
2021/12/19 07:53:12;;;;;;;38.58;19.73;;;7.80;99.90;;;;;;4992871;28;20529;-82
2021/12/19 07:55:38;;;;;;;30.58;18.55;;;8.10;99.90;;;;;;4991437;28;20027;-82
2021/12/19 07:58:04;;;;;;;28.30;17.95;;;8.60;99.90;;;;;;4992513;28;20452;-82
2021/12/19 08:00:29;;;;;;;30.13;18.35;;;9.00;99.90;;;;;;4994270;28;20019;-82
2021/12/19 08:02:55;;;;;;;122.35;48.30;;;9.20;99.90;;;;;;4996837;28;20037;-82
2021/12/19 08:05:21;;;;;;;58.55;28.15;;;9.50;99.90;;;;;;4996773;28;20046;-82
2021/12/19 08:07:54;;;;;;;28.10;16.60;;;10.10;99.90;;;;;;4996742;28;20030;-82
2021/12/19 08:12:45;;;;;;;31.95;16.27;;;10.50;99.90;;;;;;4996687;28;20053;-80
2021/12/19 08:15:12;;;;;;;30.77;17.88;;;10.90;99.90;;;;;;4996589;28;20018;-81
2021/12/19 08:17:38;;;;;;;28.40;17.48;;;11.20;99.90;;;;;;4995750;28;20074;-82
2021/12/19 08:20:06;;;;;;;29.13;16.27;;;11.90;99.90;;;;;;4996144;28;20408;-80
2021/12/19 08:22:33;;;;;;;29.52;16.50;;;12.40;99.90;;;;;;4994945;28;20435;-82
2021/12/19 08:24:59;;;;;;;31.88;18.02;;;12.80;99.90;;;;;;4995124;28;20053;-81
2021/12/19 08:27:27;;;;;;;29.73;15.98;;;12.70;99.90;;;;;;4995112;28;20049;-81
2021/12/19 08:29:54;;;;;;;30.42;16.67;;;12.90;99.90;;;;;;4996299;28;20455;-81
2021/12/19 08:32:21;;;;;;;25.92;16.70;;;13.10;99.90;;;;;;4996549;28;20018;-80
2021/12/19 08:34:47;;;;;;;27.88;17.45;;;13.40;99.90;;;;;;4996327;28;20030;-81
2021/12/19 08:37:15;;;;;;;32.20;17.42;;;13.80;99.90;;;;;;4996167;28;20030;-82
2021/12/19 08:39:42;;;;;;;25.35;16.13;;;13.80;99.90;;;;;;4995851;28;20034;-81
2021/12/19 08:42:09;;;;;;;25.38;15.40;;;13.90;99.90;;;;;;4995997;28;20030;-82
2021/12/19 08:44:35;;;;;;;24.35;16.63;;;14.40;99.90;;;;;;4996127;28;20022;-79
2021/12/19 08:47:01;;;;;;;33.35;18.42;;;14.60;99.90;;;;;;4995818;28;20495;-81
2021/12/19 08:49:27;;;;;;;39.67;20.98;;;14.30;99.90;;;;;;4996096;28;20026;-81
2021/12/19 08:51:54;;;;;;;37.22;20.13;;;14.30;99.90;;;;;;4994762;28;20166;-82
2021/12/19 08:54:21;;;;;;;28.33;19.10;;;14.60;99.90;;;;;;4995218;28;20610;-81
2021/12/19 08:56:47;;;;;;;34.13;19.67;;;15.00;99.90;;;;;;4994626;28;20042;-82
2021/12/19 08:59:12;;;;;;;33.53;18.50;;;15.40;99.90;;;;;;4995411;28;20023;-83
2021/12/19 09:01:38;;;;;;;31.65;17.98;;;15.70;99.90;;;;;;4995557;28;20026;-82
2021/12/19 09:04:05;;;;;;;29.33;17.67;;;15.30;99.90;;;;;;4995336;28;20046;-82
2021/12/19 09:06:30;;;;;;;25.05;16.10;;;14.60;99.90;;;;;;4995685;28;20051;-81
2021/12/19 09:08:56;;;;;;;23.98;15.60;;;14.10;99.90;;;;;;4995489;28;20033;-81
2021/12/19 09:11:22;;;;;;;29.15;18.63;;;14.00;99.90;;;;;;4994011;28;20037;-84
2021/12/19 09:13:48;;;;;;;26.88;18.17;;;14.00;99.90;;;;;;4995022;28;20030;-79
2021/12/19 09:16:14;;;;;;;32.47;21.13;;;13.80;99.90;;;;;;4992770;28;20394;-80
2021/12/19 09:18:40;;;;;;;40.58;22.50;;;14.00;99.90;;;;;;4995057;28;20014;-82
2021/12/19 09:21:06;;;;;;;45.67;21.30;;;14.20;99.90;;;;;;4993771;28;20117;-85
2021/12/19 09:23:33;;;;;;;35.53;21.77;;;14.20;99.90;;;;;;4995580;28;20018;-84
2021/12/19 09:26:00;;;;;;;36.83;22.15;;;13.80;99.90;;;;;;4992343;28;20022;-84
2021/12/19 09:28:27;;;;;;;33.80;22.92;;;13.60;99.90;;;;;;4992635;28;20027;-83
2021/12/19 09:30:53;;;;;;;38.33;22.55;;;13.80;99.90;;;;;;4986822;28;20114;-83
2021/12/19 09:33:19;;;;;;;37.75;22.55;;;13.90;99.90;;;;;;4991731;28;20094;-81
2021/12/19 09:35:44;;;;;;;35.63;21.92;;;14.10;99.90;;;;;;4992592;28;20026;-80
2021/12/19 09:38:10;;;;;;;40.17;23.52;;;14.30;99.90;;;;;;4992515;28;20026;-78
2021/12/19 09:40:38;;;;;;;44.53;25.10;;;14.30;99.90;;;;;;4989470;28;20037;-81
2021/12/19 09:43:10;;;;;;;40.33;24.27;;;14.10;99.90;;;;;;4992599;28;20030;-80
2021/12/19 09:45:35;;;;;;;38.33;22.65;;;14.20;99.90;;;;;;4991415;28;20034;-81
2021/12/19 09:48:01;;;;;;;50.42;23.38;;;14.50;99.90;;;;;;4995217;28;20464;-84
2021/12/19 09:50:28;;;;;;;36.67;22.92;;;14.60;99.90;;;;;;4994165;28;20045;-84
2021/12/19 09:52:54;;;;;;;35.05;22.13;;;14.80;99.90;;;;;;4988199;28;20022;-82
2021/12/19 09:55:21;;;;;;;41.53;23.23;;;14.80;99.90;;;;;;4989926;28;20034;-79
2021/12/19 09:57:49;;;;;;;34.05;21.70;;;14.80;99.90;;;;;;4992998;28;20039;-81
2021/12/19 10:00:16;;;;;;;41.53;24.00;;;14.90;99.90;;;;;;4993366;28;20026;-84
2021/12/19 10:02:42;;;;;;;33.58;22.55;;;14.90;99.90;;;;;;4994127;28;20479;-86
2021/12/19 10:05:23;;;;;;;50.95;26.92;;;15.00;99.90;;;;;;4991150;28;20034;-85
2021/12/19 10:07:55;;;;;;;49.08;23.50;;;15.00;99.90;;;;;;4991670;28;20379;-82
2021/12/19 10:10:43;;;;;;;35.42;22.33;;;14.90;99.90;;;;;;4993874;28;20029;-85
2021/12/19 10:13:09;;;;;;;38.90;22.52;;;14.90;99.90;;;;;;4992461;28;20473;-79
2021/12/19 10:15:39;;;;;;;34.67;22.73;;;15.20;99.90;;;;;;4989341;28;20066;-78
2021/12/19 10:18:09;;;;;;;36.97;22.83;;;15.30;99.90;;;;;;4993562;28;20533;-78
2021/12/19 10:20:50;;;;;;;35.58;20.83;;;15.60;99.90;;;;;;4992437;28;20173;-83
2021/12/19 10:23:25;;;;;;;32.83;22.17;;;15.80;99.90;;;;;;4985635;28;20031;-78
2021/12/19 10:25:57;;;;;;;35.55;20.92;;;15.90;99.90;;;;;;4983730;28;20041;-77
2021/12/19 10:28:23;;;;;;;32.47;18.50;;;16.10;99.90;;;;;;4994292;28;20414;-81
2021/12/19 10:30:49;;;;;;;26.27;16.90;;;16.30;99.90;;;;;;4987928;28;20023;-82
2021/12/19 10:33:19;;;;;;;27.40;17.30;;;16.50;99.90;;;;;;4992716;28;20564;-77
2021/12/19 10:35:48;;;;;;;26.52;17.20;;;16.60;99.90;;;;;;4992584;28;20109;-83
2021/12/19 10:38:23;;;;;;;26.33;16.88;;;16.70;99.90;;;;;;4992810;28;20026;-83
2021/12/19 10:40:52;;;;;;;26.35;16.27;;;16.80;99.90;;;;;;4993243;28;20037;-79
2021/12/19 10:43:19;;;;;;;24.13;15.13;;;16.90;99.90;;;;;;4993381;28;20022;-77
2021/12/19 10:45:47;;;;;;;28.25;17.85;;;17.10;99.90;;;;;;4991859;28;20014;-77
2021/12/19 10:48:38;;;;;;;23.88;17.27;;;17.20;99.90;;;;;;4992494;28;20030;-80
2021/12/19 10:51:17;;;;;;;24.02;16.13;;;17.20;99.90;;;;;;4992708;28;20379;-81
2021/12/19 10:53:54;;;;;;;27.73;15.88;;;17.30;99.90;;;;;;4990907;28;20049;-78
2021/12/19 10:56:25;;;;;;;30.92;16.42;;;17.40;99.90;;;;;;4990271;28;20052;-83
2021/12/19 10:58:55;;;;;;;29.40;16.95;;;17.30;99.90;;;;;;4985672;28;20022;-79
2021/12/19 11:01:31;;;;;;;23.48;16.65;;;17.40;99.90;;;;;;4991355;28;20036;-79
2021/12/19 11:04:10;;;;;;;21.98;15.23;;;17.60;99.90;;;;;;4989035;28;20030;-78
2021/12/19 11:06:49;;;;;;;27.17;16.08;;;17.60;99.90;;;;;;4992453;28;20049;-79
2021/12/19 11:09:23;;;;;;;21.40;15.52;;;17.60;99.90;;;;;;4988956;28;20029;-77
2021/12/19 11:11:52;;;;;;;23.65;15.73;;;17.70;99.90;;;;;;4992590;28;20022;-84
2021/12/19 11:14:33;;;;;;;25.33;15.75;;;17.60;99.90;;;;;;4992429;28;20428;-79
2021/12/19 11:17:07;;;;;;;27.48;16.40;;;17.50;99.90;;;;;;4992403;28;20030;-82
2021/12/19 11:19:33;;;;;;;26.45;17.52;;;17.40;99.90;;;;;;4988734;28;20383;-84
2021/12/19 11:21:59;;;;;;;25.35;17.02;;;17.20;99.90;;;;;;4991246;28;20441;-83
2021/12/19 11:24:26;;;;;;;30.88;17.90;;;17.10;99.90;;;;;;4989968;28;20027;-76
2021/12/19 11:26:55;;;;;;;28.42;16.23;;;17.10;99.90;;;;;;4985146;28;20026;-82
2021/12/19 11:29:21;;;;;;;27.17;17.05;;;17.20;99.90;;;;;;4989387;28;20062;-81
2021/12/19 11:31:52;;;;;;;24.02;16.45;;;17.30;99.90;;;;;;4992281;28;20030;-83
2021/12/19 11:34:51;;;;;;;23.70;16.70;;;17.40;99.90;;;;;;4992907;28;20463;-82
2021/12/19 11:37:26;;;;;;;28.45;17.45;;;17.30;99.90;;;;;;4993602;28;20039;-83
2021/12/19 11:39:55;;;;;;;25.30;17.42;;;17.30;99.90;;;;;;4993337;28;20019;-84
2021/12/19 11:42:28;;;;;;;30.10;19.23;;;17.20;99.90;;;;;;4992717;28;20069;-82
2021/12/19 11:47:55;;;;;;;26.45;18.38;;;16.80;99.90;;;;;;4992613;28;20033;-83
2021/12/19 11:50:36;;;;;;;28.80;19.05;;;16.80;99.90;;;;;;4991784;28;20027;-82
2021/12/19 11:53:08;;;;;;;28.52;18.25;;;16.70;99.90;;;;;;4989742;28;20027;-81
2021/12/19 11:55:40;;;;;;;;;;;16.30;99.90;;;;;;4987421;28;20022;-80
2021/12/19 11:58:09;;;;;;;27.50;19.35;;;16.00;99.90;;;;;;4982453;28;20256;-81
2021/12/19 12:00:55;;;;;;;30.85;20.52;;;15.70;99.90;;;;;;4986018;28;20061;-82
2021/12/19 12:03:24;;;;;;;40.88;23.55;;;15.40;99.90;;;;;;4988419;28;20030;-83
2021/12/19 12:06:16;;;;;;;40.55;25.98;;;15.00;99.90;;;;;;4990155;28;20060;-86
2021/12/19 12:09:06;;;;;;;46.08;28.58;;;14.70;99.90;;;;;;4990480;28;20506;-82
2021/12/19 12:11:34;;;;;;;53.83;30.75;;;14.30;99.90;;;;;;4994265;28;20026;-85
2021/12/19 12:14:26;;;;;;;60.35;33.97;;;14.00;99.90;;;;;;4993212;28;20037;-83
2021/12/19 12:16:57;;;;;;;62.65;35.40;;;13.70;99.90;;;;;;4985920;28;20121;-85
2021/12/19 12:19:43;;;;;;;60.13;35.03;;;13.40;99.90;;;;;;4991747;28;20544;-80
2021/12/19 12:22:35;;;;;;;60.10;34.50;;;13.10;99.90;;;;;;4990050;28;20030;-82
2021/12/19 12:25:16;;;;;;;62.80;36.20;;;12.80;99.90;;;;;;4991509;28;20475;-85
2021/12/19 12:27:51;;;;;;;56.40;31.85;;;12.60;99.90;;;;;;4993300;28;20030;-81
2021/12/19 12:30:27;;;;;;;60.35;34.00;;;12.40;99.90;;;;;;4972454;28;20492;-82
2021/12/19 12:32:55;;;;;;;62.25;33.40;;;12.20;99.90;;;;;;4979645;28;20066;-80
2021/12/19 12:35:22;;;;;;;51.67;31.83;;;12.10;99.90;;;;;;4989445;28;20019;-79
2021/12/19 12:37:51;;;;;;;60.40;33.08;;;12.10;99.90;;;;;;4990223;28;20529;-77
2021/12/19 12:40:30;;;;;;;57.05;32.55;;;12.00;99.90;;;;;;4989820;28;20034;-76
2021/12/19 12:43:09;;;;;;;57.85;33.03;;;12.00;99.90;;;;;;4989778;28;20486;-76
2021/12/19 12:46:13;;;;;;;56.70;32.97;;;11.90;99.90;;;;;;4989057;28;20023;-76
2021/12/19 12:48:48;;;;;;;54.70;32.40;;;11.90;99.90;;;;;;4992817;28;20033;-77
2021/12/19 12:51:24;;;;;;;53.47;31.00;;;11.80;99.90;;;;;;4991934;28;20117;-76
2021/12/19 12:53:53;;;;;;;53.53;32.38;;;11.60;99.90;;;;;;4992973;28;20026;-75
2021/12/19 12:56:26;;;;;;;56.05;33.33;;;11.50;99.90;;;;;;4989814;28;20463;-76
2021/12/19 12:58:55;;;;;;;61.55;33.50;;;11.40;99.90;;;;;;4993468;28;20022;-74
2021/12/19 13:01:26;;;;;;;54.10;32.72;;;11.30;99.90;;;;;;4994219;28;20105;-76
2021/12/19 13:04:15;;;;;;;59.92;33.33;;;11.30;99.90;;;;;;4994473;28;20023;-77
2021/12/19 13:06:53;;;;;;;55.50;32.72;;;11.20;99.90;;;;;;4994789;28;20061;-77
2021/12/19 13:09:40;;;;;;;57.65;33.08;;;11.20;99.90;;;;;;4995311;28;20045;-77
2021/12/19 13:12:18;;;;;;;56.72;33.40;;;11.20;99.90;;;;;;4993553;28;20409;-77
2021/12/19 13:14:50;;;;;;;61.17;34.20;;;11.10;99.90;;;;;;4994417;28;20105;-76
2021/12/19 13:17:18;;;;;;;60.38;36.15;;;11.10;99.90;;;;;;4994575;28;20031;-76
2021/12/19 13:20:08;;;;;;;68.78;37.95;;;11.00;99.90;;;;;;4994766;28;20105;-76
2021/12/19 13:22:47;;;;;;;59.22;35.80;;;10.90;99.90;;;;;;4992970;28;20058;-75
2021/12/19 13:25:17;;;;;;;61.17;37.08;;;10.80;99.90;;;;;;4993446;28;20092;-74
2021/12/19 13:27:52;;;;;;;62.47;33.92;;;10.70;99.90;;;;;;4994659;28;20400;-75
2021/12/19 13:30:21;;;;;;;60.90;36.10;;;10.70;99.90;;;;;;4993487;28;20163;-76
2021/12/19 13:32:51;;;;;;;59.97;35.50;;;10.60;99.90;;;;;;4994215;28;20033;-75
2021/12/19 13:35:22;;;;;;;66.85;39.90;;;10.50;99.90;;;;;;4994420;28;20018;-75
2021/12/19 13:38:08;;;;;;;58.03;35.65;;;10.50;99.90;;;;;;4992969;28;20034;-75
2021/12/19 13:41:00;;;;;;;64.90;37.10;;;10.20;99.90;;;;;;4993864;28;20038;-76
2021/12/19 13:43:34;;;;;;;65.43;38.70;;;10.20;99.90;;;;;;4992813;28;20034;-75
2021/12/19 13:46:06;;;;;;;58.38;35.55;;;10.10;99.90;;;;;;4993987;28;20032;-75
2021/12/19 13:48:37;;;;;;;63.10;38.20;;;10.10;99.90;;;;;;4994335;28;20031;-75
2021/12/19 13:51:05;;;;;;;66.57;39.90;;;10.10;99.90;;;;;;4993217;28;20501;-75
2021/12/19 13:53:33;;;;;;;59.50;37.97;;;10.00;99.90;;;;;;4988369;28;20019;-74